sensor_id;sensor_type;location;lat;lon;timestamp;pressure;altitude;pressure_sealevel;temperature;humidity
43820;BME280;67762;52.476;6.046;2023-03-20T00:03:31;101850.13;;;8.29;82.27
43820;BME280;67762;52.476;6.046;2023-03-20T00:05:57;101851.91;;;8.28;81.86
43820;BME280;67762;52.476;6.046;2023-03-20T00:08:23;101859.06;;;8.28;81.92
43820;BME280;67762;52.476;6.046;2023-03-20T00:10:49;101852.91;;;8.27;82.10
43820;BME280;67762;52.476;6.046;2023-03-20T00:13:26;101860.75;;;8.29;81.85
43820;BME280;67762;52.476;6.046;2023-03-20T00:15:53;101859.78;;;8.30;82.20
43820;BME280;67762;52.476;6.046;2023-03-20T00:18:21;101858.94;;;8.29;82.24
43820;BME280;67762;52.476;6.046;2023-03-20T00:20:49;101859.66;;;8.31;81.99
43820;BME280;67762;52.476;6.046;2023-03-20T00:23:16;101856.03;;;8.32;82.32
43820;BME280;67762;52.476;6.046;2023-03-20T00:25:43;101859.56;;;8.33;81.93
43820;BME280;67762;52.476;6.046;2023-03-20T00:28:28;101853.38;;;8.32;81.61
43820;BME280;67762;52.476;6.046;2023-03-20T00:30:55;101860.50;;;8.32;81.56
43820;BME280;67762;52.476;6.046;2023-03-20T00:33:21;101856.03;;;8.32;81.99
43820;BME280;67762;52.476;6.046;2023-03-20T00:35:48;101860.50;;;8.32;81.66
43820;BME280;67762;52.476;6.046;2023-03-20T00:38:13;101862.22;;;8.33;82.33
43820;BME280;67762;52.476;6.046;2023-03-20T00:40:39;101867.53;;;8.33;81.95
43820;BME280;67762;52.476;6.046;2023-03-20T00:43:05;101877.16;;;8.34;81.71
43820;BME280;67762;52.476;6.046;2023-03-20T00:45:33;101870.91;;;8.35;81.58
43820;BME280;67762;52.476;6.046;2023-03-20T00:48:00;101864.63;;;8.36;82.14
43820;BME280;67762;52.476;6.046;2023-03-20T00:50:29;101855.78;;;8.35;81.40
43820;BME280;67762;52.476;6.046;2023-03-20T00:52:57;101858.44;;;8.35;81.63
43820;BME280;67762;52.476;6.046;2023-03-20T00:55:27;101863.78;;;8.35;81.83
43820;BME280;67762;52.476;6.046;2023-03-20T00:57:58;101866.53;;;8.34;81.46
43820;BME280;67762;52.476;6.046;2023-03-20T01:00:44;101875.38;;;8.34;81.61
43820;BME280;67762;52.476;6.046;2023-03-20T01:05:40;101877.31;;;8.32;81.37
43820;BME280;67762;52.476;6.046;2023-03-20T01:08:12;101899.53;;;8.31;81.54
43820;BME280;67762;52.476;6.046;2023-03-20T01:10:38;101903.06;;;8.32;81.79
43820;BME280;67762;52.476;6.046;2023-03-20T01:13:05;101895.94;;;8.32;81.84
43820;BME280;67762;52.476;6.046;2023-03-20T01:15:37;101907.41;;;8.33;81.33
43820;BME280;67762;52.476;6.046;2023-03-20T01:18:03;101921.53;;;8.33;81.20
43820;BME280;67762;52.476;6.046;2023-03-20T01:20:29;101924.09;;;8.35;81.34
43820;BME280;67762;52.476;6.046;2023-03-20T01:22:55;101925.03;;;8.34;81.10
43820;BME280;67762;52.476;6.046;2023-03-20T01:25:22;101932.91;;;8.35;80.86
43820;BME280;67762;52.476;6.046;2023-03-20T01:27:52;101924.78;;;8.37;80.96
43820;BME280;67762;52.476;6.046;2023-03-20T01:30:30;101915.16;;;8.36;81.08
43820;BME280;67762;52.476;6.046;2023-03-20T01:33:00;101915.97;;;8.36;80.66
43820;BME280;67762;52.476;6.046;2023-03-20T01:35:29;101916.09;;;8.35;80.24
43820;BME280;67762;52.476;6.046;2023-03-20T01:37:59;101914.28;;;8.35;80.35
43820;BME280;67762;52.476;6.046;2023-03-20T01:40:32;101915.16;;;8.36;80.27
43820;BME280;67762;52.476;6.046;2023-03-20T01:43:00;101910.78;;;8.35;80.63
43820;BME280;67762;52.476;6.046;2023-03-20T01:45:33;101913.44;;;8.35;80.28
43820;BME280;67762;52.476;6.046;2023-03-20T01:48:20;101921.41;;;8.35;80.56
43820;BME280;67762;52.476;6.046;2023-03-20T01:50:48;101917.91;;;8.34;79.98
43820;BME280;67762;52.476;6.046;2023-03-20T01:53:24;101920.47;;;8.36;80.46
43820;BME280;67762;52.476;6.046;2023-03-20T01:55:56;101918.75;;;8.35;79.79
43820;BME280;67762;52.476;6.046;2023-03-20T01:58:32;101924.09;;;8.35;80.44
43820;BME280;67762;52.476;6.046;2023-03-20T02:01:00;101914.41;;;8.34;80.54
43820;BME280;67762;52.476;6.046;2023-03-20T02:03:26;101920.56;;;8.34;79.94
43820;BME280;67762;52.476;6.046;2023-03-20T02:05:58;101925.03;;;8.34;80.13
43820;BME280;67762;52.476;6.046;2023-03-20T02:08:36;101901.09;;;8.34;79.86
43820;BME280;67762;52.476;6.046;2023-03-20T02:11:05;101879.84;;;8.34;80.04
43820;BME280;67762;52.476;6.046;2023-03-20T02:13:31;101873.66;;;8.33;80.30
43820;BME280;67762;52.476;6.046;2023-03-20T02:18:43;101899.44;;;8.33;80.23
43820;BME280;67762;52.476;6.046;2023-03-20T02:29:20;101850.25;;;8.27;79.64
43820;BME280;67762;52.476;6.046;2023-03-20T02:34:56;101846.09;;;8.23;80.09
43820;BME280;67762;52.476;6.046;2023-03-20T02:37:41;101849.88;;;8.20;80.59
43820;BME280;67762;52.476;6.046;2023-03-20T02:42:58;101842.13;;;8.17;80.53
43820;BME280;67762;52.476;6.046;2023-03-20T02:45:26;101850.25;;;8.16;79.95
43820;BME280;67762;52.476;6.046;2023-03-20T02:56:15;101842.88;;;8.08;80.62
43820;BME280;67762;52.476;6.046;2023-03-20T02:58:59;101844.81;;;8.06;80.36
43820;BME280;67762;52.476;6.046;2023-03-20T03:01:30;101846.75;;;8.04;79.97
43820;BME280;67762;52.476;6.046;2023-03-20T03:04:01;101855.69;;;8.03;80.60
43820;BME280;67762;52.476;6.046;2023-03-20T03:06:30;101844.19;;;8.03;80.40
43820;BME280;67762;52.476;6.046;2023-03-20T03:09:00;101838.06;;;8.02;79.85
43820;BME280;67762;52.476;6.046;2023-03-20T03:11:30;101839.97;;;8.00;80.06
43820;BME280;67762;52.476;6.046;2023-03-20T03:13:58;101832.84;;;8.01;79.86
43820;BME280;67762;52.476;6.046;2023-03-20T03:16:29;101831.28;;;7.98;80.67
43820;BME280;67762;52.476;6.046;2023-03-20T03:19:04;101829.59;;;7.97;80.56
43820;BME280;67762;52.476;6.046;2023-03-20T03:21:32;101826.22;;;7.95;79.90
43820;BME280;67762;52.476;6.046;2023-03-20T03:23:59;101813.06;;;7.94;80.54
43820;BME280;67762;52.476;6.046;2023-03-20T03:26:29;101806.91;;;7.93;79.88
43820;BME280;67762;52.476;6.046;2023-03-20T03:29:01;101806.19;;;7.91;79.44
43820;BME280;67762;52.476;6.046;2023-03-20T03:31:29;101794.81;;;7.89;80.17
43820;BME280;67762;52.476;6.046;2023-03-20T03:33:57;101802.78;;;7.89;79.83
43820;BME280;67762;52.476;6.046;2023-03-20T03:39:04;101791.59;;;7.86;78.97
43820;BME280;67762;52.476;6.046;2023-03-20T03:41:38;101780.22;;;7.84;78.75
43820;BME280;67762;52.476;6.046;2023-03-20T03:44:23;101768.25;;;7.78;79.50
43820;BME280;67762;52.476;6.046;2023-03-20T03:46:53;101773.81;;;7.75;79.72
43820;BME280;67762;52.476;6.046;2023-03-20T03:49:32;101769.75;;;7.71;78.72
43820;BME280;67762;52.476;6.046;2023-03-20T03:52:03;101770.69;;;7.70;79.07
43820;BME280;67762;52.476;6.046;2023-03-20T03:57:31;101780.94;;;7.63;79.25
43820;BME280;67762;52.476;6.046;2023-03-20T04:00:00;101779.28;;;7.62;79.63
43820;BME280;67762;52.476;6.046;2023-03-20T04:02:40;101782.78;;;7.63;78.71
43820;BME280;67762;52.476;6.046;2023-03-20T04:05:06;101779.53;;;7.59;79.07
43820;BME280;67762;52.476;6.046;2023-03-20T04:07:34;101791.00;;;7.60;79.56
43820;BME280;67762;52.476;6.046;2023-03-20T04:09:59;101783.03;;;7.60;78.98
43820;BME280;67762;52.476;6.046;2023-03-20T04:12:37;101779.63;;;7.58;79.04
43820;BME280;67762;52.476;6.046;2023-03-20T04:15:05;101766.47;;;7.56;78.42
43820;BME280;67762;52.476;6.046;2023-03-20T04:17:32;101773.50;;;7.57;78.32
43820;BME280;67762;52.476;6.046;2023-03-20T04:19:58;101776.25;;;7.56;78.79
43820;BME280;67762;52.476;6.046;2023-03-20T04:22:23;101766.63;;;7.55;79.32
43820;BME280;67762;52.476;6.046;2023-03-20T04:24:50;101768.28;;;7.56;79.13
43820;BME280;67762;52.476;6.046;2023-03-20T04:27:17;101762.25;;;7.54;79.30
43820;BME280;67762;52.476;6.046;2023-03-20T04:29:43;101765.03;;;7.52;78.98
43820;BME280;67762;52.476;6.046;2023-03-20T04:32:28;101762.38;;;7.52;78.46
43820;BME280;67762;52.476;6.046;2023-03-20T04:35:06;101757.19;;;7.51;79.19
43820;BME280;67762;52.476;6.046;2023-03-20T04:37:45;101761.66;;;7.50;78.85
43820;BME280;67762;52.476;6.046;2023-03-20T04:40:11;101773.97;;;7.51;78.50
43820;BME280;67762;52.476;6.046;2023-03-20T04:42:40;101782.78;;;7.52;78.13
43820;BME280;67762;52.476;6.046;2023-03-20T04:45:06;101771.31;;;7.51;77.85
43820;BME280;67762;52.476;6.046;2023-03-20T04:47:34;101767.69;;;7.52;78.57
43820;BME280;67762;52.476;6.046;2023-03-20T04:50:00;101771.09;;;7.54;78.05
43820;BME280;67762;52.476;6.046;2023-03-20T04:52:26;101767.56;;;7.54;77.77
43820;BME280;67762;52.476;6.046;2023-03-20T04:54:51;101759.63;;;7.54;77.55
43820;BME280;67762;52.476;6.046;2023-03-20T04:57:17;101764.06;;;7.53;78.36
43820;BME280;67762;52.476;6.046;2023-03-20T04:59:43;101764.06;;;7.53;78.13
43820;BME280;67762;52.476;6.046;2023-03-20T05:02:08;101764.06;;;7.53;77.30
43820;BME280;67762;52.476;6.046;2023-03-20T05:04:40;101753.59;;;7.52;78.19
43820;BME280;67762;52.476;6.046;2023-03-20T05:07:06;101765.88;;;7.53;77.17
43820;BME280;67762;52.476;6.046;2023-03-20T05:09:47;101769.38;;;7.53;77.40
43820;BME280;67762;52.476;6.046;2023-03-20T05:12:13;101766.63;;;7.55;77.24
43820;BME280;67762;52.476;6.046;2023-03-20T05:14:58;101759.63;;;7.54;77.67
43820;BME280;67762;52.476;6.046;2023-03-20T05:17:59;101759.63;;;7.54;77.78
43820;BME280;67762;52.476;6.046;2023-03-20T05:20:51;101750.78;;;7.53;76.91
43820;BME280;67762;52.476;6.046;2023-03-20T05:23:39;101757.91;;;7.53;77.07
43820;BME280;67762;52.476;6.046;2023-03-20T05:26:23;101768.53;;;7.53;76.54
43820;BME280;67762;52.476;6.046;2023-03-20T05:28:58;101765.88;;;7.53;76.24
43820;BME280;67762;52.476;6.046;2023-03-20T05:31:37;101769.38;;;7.53;76.52
43820;BME280;67762;52.476;6.046;2023-03-20T05:34:27;101759.72;;;7.52;76.79
43820;BME280;67762;52.476;6.046;2023-03-20T05:37:11;101765.03;;;7.52;76.69
43820;BME280;67762;52.476;6.046;2023-03-20T05:39:56;101763.34;;;7.51;76.37
43820;BME280;67762;52.476;6.046;2023-03-20T05:42:51;101758.91;;;7.52;76.77
43820;BME280;67762;52.476;6.046;2023-03-20T05:45:37;101764.06;;;7.53;75.72
43820;BME280;67762;52.476;6.046;2023-03-20T05:48:29;101763.13;;;7.54;76.45
43820;BME280;67762;52.476;6.046;2023-03-20T05:51:19;101767.56;;;7.54;75.51
43820;BME280;67762;52.476;6.046;2023-03-20T05:53:55;101770.22;;;7.54;76.55
43820;BME280;67762;52.476;6.046;2023-03-20T05:56:33;101777.34;;;7.53;75.61
43820;BME280;67762;52.476;6.046;2023-03-20T05:59:22;101778.91;;;7.56;75.46
43820;BME280;67762;52.476;6.046;2023-03-20T06:02:00;101770.94;;;7.56;75.35
43820;BME280;67762;52.476;6.046;2023-03-20T06:04:30;101770.00;;;7.57;76.29
43820;BME280;67762;52.476;6.046;2023-03-20T06:07:13;101758.38;;;7.58;76.01
43820;BME280;67762;52.476;6.046;2023-03-20T06:09:41;101760.94;;;7.59;75.57
43820;BME280;67762;52.476;6.046;2023-03-20T06:12:10;101761.66;;;7.61;74.73
43820;BME280;67762;52.476;6.046;2023-03-20T06:14:37;101771.19;;;7.64;75.46
43820;BME280;67762;52.476;6.046;2023-03-20T06:17:06;101779.03;;;7.65;74.58
43820;BME280;67762;52.476;6.046;2023-03-20T06:19:32;101777.25;;;7.66;75.63
43820;BME280;67762;52.476;6.046;2023-03-20T06:21:58;101787.72;;;7.68;74.54
43820;BME280;67762;52.476;6.046;2023-03-20T06:24:24;101783.25;;;7.68;75.29
43820;BME280;67762;52.476;6.046;2023-03-20T06:26:50;101788.44;;;7.70;75.50
43820;BME280;67762;52.476;6.046;2023-03-20T06:29:17;101791.22;;;7.68;74.55
43820;BME280;67762;52.476;6.046;2023-03-20T06:31:43;101795.69;;;7.68;74.55
43820;BME280;67762;52.476;6.046;2023-03-20T06:34:15;101784.13;;;7.69;75.44
43820;BME280;67762;52.476;6.046;2023-03-20T06:36:44;101786.78;;;7.69;74.25
43820;BME280;67762;52.476;6.046;2023-03-20T06:39:15;101787.59;;;7.69;74.97
43820;BME280;67762;52.476;6.046;2023-03-20T06:41:41;101788.44;;;7.70;74.54
43820;BME280;67762;52.476;6.046;2023-03-20T06:44:09;101782.28;;;7.69;74.82
43820;BME280;67762;52.476;6.046;2023-03-20T06:47:13;101781.31;;;7.70;74.79
43820;BME280;67762;52.476;6.046;2023-03-20T06:49:39;101782.03;;;7.72;74.36
43820;BME280;67762;52.476;6.046;2023-03-20T06:52:07;101779.28;;;7.74;73.80
43820;BME280;67762;52.476;6.046;2023-03-20T06:54:34;101788.81;;;7.76;74.53
43820;BME280;67762;52.476;6.046;2023-03-20T06:57:01;101799.19;;;7.79;74.23
43820;BME280;67762;52.476;6.046;2023-03-20T06:59:26;101792.91;;;7.80;73.54
43820;BME280;67762;52.476;6.046;2023-03-20T07:01:55;101798.94;;;7.82;73.84
43820;BME280;67762;52.476;6.046;2023-03-20T07:04:21;101795.31;;;7.83;73.45
43820;BME280;67762;52.476;6.046;2023-03-20T07:06:51;101794.25;;;7.86;74.03
43820;BME280;67762;52.476;6.046;2023-03-20T07:09:16;101794.94;;;7.88;74.04
43820;BME280;67762;52.476;6.046;2023-03-20T07:11:43;101790.25;;;7.91;73.29
43820;BME280;67762;52.476;6.046;2023-03-20T07:14:09;101790.09;;;7.93;73.17
43820;BME280;67762;52.476;6.046;2023-03-20T07:16:45;101788.16;;;7.95;73.11
43820;BME280;67762;52.476;6.046;2023-03-20T07:19:11;101789.63;;;7.99;73.73
43820;BME280;67762;52.476;6.046;2023-03-20T07:21:40;101788.53;;;8.01;73.32
43820;BME280;67762;52.476;6.046;2023-03-20T07:24:06;101786.56;;;8.03;72.86
43820;BME280;67762;52.476;6.046;2023-03-20T07:26:32;101788.03;;;8.07;72.59
43820;BME280;67762;52.476;6.046;2023-03-20T07:28:58;101788.59;;;8.11;73.04
43820;BME280;67762;52.476;6.046;2023-03-20T07:31:27;101792.56;;;8.16;72.62
43820;BME280;67762;52.476;6.046;2023-03-20T07:34:17;101790.41;;;8.21;72.53
43820;BME280;67762;52.476;6.046;2023-03-20T07:36:44;101796.19;;;8.27;72.19
43820;BME280;67762;52.476;6.046;2023-03-20T07:39:15;101791.22;;;8.33;72.12
43820;BME280;67762;52.476;6.046;2023-03-20T07:41:47;101787.34;;;8.37;72.29
43820;BME280;67762;52.476;6.046;2023-03-20T07:44:23;101791.56;;;8.40;71.55
43820;BME280;67762;52.476;6.046;2023-03-20T07:46:51;101791.19;;;8.44;72.04
43820;BME280;67762;52.476;6.046;2023-03-20T07:49:17;101797.09;;;8.48;72.13
43820;BME280;67762;52.476;6.046;2023-03-20T07:51:45;101803.72;;;8.53;71.83
43820;BME280;67762;52.476;6.046;2023-03-20T07:54:12;101806.84;;;8.58;71.57
43820;BME280;67762;52.476;6.046;2023-03-20T07:56:37;101799.59;;;8.60;71.56
43820;BME280;67762;52.476;6.046;2023-03-20T07:59:03;101791.22;;;8.65;71.58
43820;BME280;67762;52.476;6.046;2023-03-20T08:01:29;101795.19;;;8.70;71.49
43820;BME280;67762;52.476;6.046;2023-03-20T08:03:54;101799.88;;;8.78;71.18
43820;BME280;67762;52.476;6.046;2023-03-20T08:06:20;101795.38;;;8.78;71.06
43820;BME280;67762;52.476;6.046;2023-03-20T08:08:45;101801.06;;;8.85;70.93
43820;BME280;67762;52.476;6.046;2023-03-20T08:11:12;101793.84;;;8.97;70.41
43820;BME280;67762;52.476;6.046;2023-03-20T08:13:37;101798.38;;;9.06;70.12
43820;BME280;67762;52.476;6.046;2023-03-20T08:16:03;101797.59;;;9.15;70.09
43820;BME280;67762;52.476;6.046;2023-03-20T08:18:29;101799.06;;;9.28;70.25
43820;BME280;67762;52.476;6.046;2023-03-20T08:20:55;101795.03;;;9.34;70.82
43820;BME280;67762;52.476;6.046;2023-03-20T08:23:20;101797.00;;;9.32;69.82
43820;BME280;67762;52.476;6.046;2023-03-20T08:25:48;101792.25;;;9.35;69.60
43820;BME280;67762;52.476;6.046;2023-03-20T08:28:14;101792.97;;;9.37;69.75
43820;BME280;67762;52.476;6.046;2023-03-20T08:30:39;101795.63;;;9.37;69.13
43820;BME280;67762;52.476;6.046;2023-03-20T08:33:05;101803.03;;;9.34;68.98
43820;BME280;67762;52.476;6.046;2023-03-20T08:35:30;101806.13;;;9.39;68.59
43820;BME280;67762;52.476;6.046;2023-03-20T08:37:56;101806.19;;;9.49;69.73
43820;BME280;67762;52.476;6.046;2023-03-20T08:40:22;101803.53;;;9.49;69.20
43820;BME280;67762;52.476;6.046;2023-03-20T08:42:47;101797.34;;;9.48;68.86
43820;BME280;67762;52.476;6.046;2023-03-20T08:45:13;101799.41;;;9.45;68.78
43820;BME280;67762;52.476;6.046;2023-03-20T08:47:39;101803.38;;;9.50;68.23
43820;BME280;67762;52.476;6.046;2023-03-20T08:50:05;101805.78;;;9.53;68.73
43820;BME280;67762;52.476;6.046;2023-03-20T08:52:32;101802.16;;;9.54;68.51
43820;BME280;67762;52.476;6.046;2023-03-20T08:54:57;101798.94;;;9.60;68.71
43820;BME280;67762;52.476;6.046;2023-03-20T08:57:23;101802.06;;;9.65;68.72
43820;BME280;67762;52.476;6.046;2023-03-20T08:59:49;101794.63;;;9.69;68.19
43820;BME280;67762;52.476;6.046;2023-03-20T09:02:14;101796.03;;;9.73;68.18
43820;BME280;67762;52.476;6.046;2023-03-20T09:04:40;101799.97;;;9.78;68.50
43820;BME280;67762;52.476;6.046;2023-03-20T09:07:06;101794.97;;;9.85;68.01
43820;BME280;67762;52.476;6.046;2023-03-20T09:09:32;101791.88;;;9.89;68.20
43820;BME280;67762;52.476;6.046;2023-03-20T09:11:57;101791.44;;;9.84;67.12
43820;BME280;67762;52.476;6.046;2023-03-20T09:14:25;101798.88;;;9.81;67.57
43820;BME280;67762;52.476;6.046;2023-03-20T09:16:51;101803.81;;;9.85;67.42
43820;BME280;67762;52.476;6.046;2023-03-20T09:19:17;101802.44;;;9.91;67.54
43820;BME280;67762;52.476;6.046;2023-03-20T09:21:43;101800.03;;;9.97;67.24
43820;BME280;67762;52.476;6.046;2023-03-20T09:24:09;101794.16;;;10.04;67.27
43820;BME280;67762;52.476;6.046;2023-03-20T09:26:37;101793.75;;;10.08;67.49
43820;BME280;67762;52.476;6.046;2023-03-20T09:29:03;101793.47;;;10.11;66.62
43820;BME280;67762;52.476;6.046;2023-03-20T09:31:29;101789.94;;;10.11;66.94
43820;BME280;67762;52.476;6.046;2023-03-20T09:33:55;101793.47;;;10.11;66.52
43820;BME280;67762;52.476;6.046;2023-03-20T09:36:20;101794.75;;;10.07;66.56
43820;BME280;67762;52.476;6.046;2023-03-20T09:38:46;101789.72;;;10.14;66.79
43820;BME280;67762;52.476;6.046;2023-03-20T09:41:19;101795.63;;;10.17;66.15
43820;BME280;67762;52.476;6.046;2023-03-20T09:44:14;101792.94;;;10.17;66.44
43820;BME280;67762;52.476;6.046;2023-03-20T09:49:47;101793.78;;;10.27;66.54
43820;BME280;67762;52.476;6.046;2023-03-20T09:54:43;101807.59;;;10.32;66.84
43820;BME280;67762;52.476;6.046;2023-03-20T09:57:39;101808.56;;;10.31;66.54
43820;BME280;67762;52.476;6.046;2023-03-20T10:00:10;101807.44;;;10.24;67.34
43820;BME280;67762;52.476;6.046;2023-03-20T10:03:00;101817.47;;;10.11;67.45
43820;BME280;67762;52.476;6.046;2023-03-20T10:05:29;101811.97;;;9.93;67.32
43820;BME280;67762;52.476;6.046;2023-03-20T10:08:03;101807.75;;;9.91;67.71
43820;BME280;67762;52.476;6.046;2023-03-20T10:10:41;101798.16;;;9.79;67.63
43820;BME280;67762;52.476;6.046;2023-03-20T10:18:28;101789.09;;;9.91;67.10
43820;BME280;67762;52.476;6.046;2023-03-20T10:21:09;101791.34;;;10.05;67.24
43820;BME280;67762;52.476;6.046;2023-03-20T10:23:40;101788.03;;;10.22;67.15
43820;BME280;67762;52.476;6.046;2023-03-20T10:26:12;101782.84;;;10.30;66.70
43820;BME280;67762;52.476;6.046;2023-03-20T10:28:52;101771.78;;;10.35;66.07
43820;BME280;67762;52.476;6.046;2023-03-20T10:36:55;101774.88;;;10.49;65.18
43820;BME280;67762;52.476;6.046;2023-03-20T10:39:46;101768.13;;;10.65;65.77
43820;BME280;67762;52.476;6.046;2023-03-20T10:42:19;101770.19;;;10.80;64.74
43820;BME280;67762;52.476;6.046;2023-03-20T10:44:56;101772.34;;;10.77;64.03
43820;BME280;67762;52.476;6.046;2023-03-20T10:47:25;101782.44;;;10.64;64.11
43820;BME280;67762;52.476;6.046;2023-03-20T10:49:56;101781.31;;;10.56;64.53
43820;BME280;67762;52.476;6.046;2023-03-20T10:52:29;101778.22;;;10.61;64.82
43820;BME280;67762;52.476;6.046;2023-03-20T10:55:06;101772.88;;;10.61;63.72
43820;BME280;67762;52.476;6.046;2023-03-20T10:57:35;101789.31;;;10.47;64.01
43820;BME280;67762;52.476;6.046;2023-03-20T11:00:02;101785.56;;;10.49;63.74
43820;BME280;67762;52.476;6.046;2023-03-20T11:02:30;101785.97;;;10.35;64.10
43820;BME280;67762;52.476;6.046;2023-03-20T11:04:59;101780.19;;;10.30;64.68
43820;BME280;67762;52.476;6.046;2023-03-20T11:07:31;101785.09;;;10.25;64.28
43820;BME280;67762;52.476;6.046;2023-03-20T11:12:36;101778.91;;;10.25;64.58
43820;BME280;67762;52.476;6.046;2023-03-20T11:15:19;101783.84;;;10.29;64.78
43820;BME280;67762;52.476;6.046;2023-03-20T11:18:01;101782.56;;;10.33;64.84
43820;BME280;67762;52.476;6.046;2023-03-20T11:20:55;101779.91;;;10.33;64.60
43820;BME280;67762;52.476;6.046;2023-03-20T11:23:31;101779.63;;;10.36;64.99
43820;BME280;67762;52.476;6.046;2023-03-20T11:26:11;101775.00;;;10.29;64.88
43820;BME280;67762;52.476;6.046;2023-03-20T11:28:50;101776.13;;;10.26;64.92
43820;BME280;67762;52.476;6.046;2023-03-20T11:31:37;101774.84;;;10.30;65.51
43820;BME280;67762;52.476;6.046;2023-03-20T11:36:30;101771.88;;;10.14;66.86
43820;BME280;67762;52.476;6.046;2023-03-20T11:44:29;101781.41;;;10.07;67.56
43820;BME280;67762;52.476;6.046;2023-03-20T11:47:01;101768.25;;;10.15;68.01
43820;BME280;67762;52.476;6.046;2023-03-20T11:49:32;101775.66;;;10.02;67.94
43820;BME280;67762;52.476;6.046;2023-03-20T11:52:12;101773.53;;;9.96;68.64
43820;BME280;67762;52.476;6.046;2023-03-20T11:54:46;101775.34;;;9.95;69.01
43820;BME280;67762;52.476;6.046;2023-03-20T11:59:54;101764.78;;;9.94;69.26
43820;BME280;67762;52.476;6.046;2023-03-20T12:02:22;101762.00;;;9.95;69.59
43820;BME280;67762;52.476;6.046;2023-03-20T12:04:49;101775.91;;;9.99;69.46
43820;BME280;67762;52.476;6.046;2023-03-20T12:07:41;101768.19;;;9.96;70.16
43820;BME280;67762;52.476;6.046;2023-03-20T12:10:11;101761.84;;;9.97;70.30
43820;BME280;67762;52.476;6.046;2023-03-20T12:12:50;101753.00;;;9.87;70.05
43820;BME280;67762;52.476;6.046;2023-03-20T12:15:29;101756.50;;;9.78;70.63
43820;BME280;67762;52.476;6.046;2023-03-20T12:18:07;101761.06;;;9.66;70.68
43820;BME280;67762;52.476;6.046;2023-03-20T12:21:02;101752.50;;;9.53;71.21
43820;BME280;67762;52.476;6.046;2023-03-20T12:23:50;101760.56;;;9.42;71.89
43820;BME280;67762;52.476;6.046;2023-03-20T12:26:32;101769.34;;;9.33;72.11
43820;BME280;67762;52.476;6.046;2023-03-20T12:29:01;101769.34;;;9.33;72.74
43820;BME280;67762;52.476;6.046;2023-03-20T12:34:25;101777.00;;;9.17;73.26
43820;BME280;67762;52.476;6.046;2023-03-20T12:36:55;101772.53;;;9.17;73.95
43820;BME280;67762;52.476;6.046;2023-03-20T12:39:34;101766.94;;;9.20;74.57
43820;BME280;67762;52.476;6.046;2023-03-20T12:42:34;101764.53;;;9.17;74.94
43820;BME280;67762;52.476;6.046;2023-03-20T12:45:17;101759.16;;;9.08;75.49
43820;BME280;67762;52.476;6.046;2023-03-20T12:50:41;101750.69;;;8.93;75.91
43820;BME280;67762;52.476;6.046;2023-03-20T12:58:34;101755.41;;;8.90;77.52
43820;BME280;67762;52.476;6.046;2023-03-20T13:01:05;101746.31;;;8.92;77.44
43820;BME280;67762;52.476;6.046;2023-03-20T13:06:27;101741.75;;;8.83;78.48
43820;BME280;67762;52.476;6.046;2023-03-20T13:09:14;101748.78;;;8.84;78.14
43820;BME280;67762;52.476;6.046;2023-03-20T13:11:49;101737.88;;;8.87;78.77
43820;BME280;67762;52.476;6.046;2023-03-20T13:14:44;101728.59;;;8.81;78.59
43820;BME280;67762;52.476;6.046;2023-03-20T13:25:39;101720.53;;;8.93;79.74
43820;BME280;67762;52.476;6.046;2023-03-20T13:30:44;101723.38;;;9.01;79.87
43820;BME280;67762;52.476;6.046;2023-03-20T13:33:42;101718.91;;;9.01;80.31
43820;BME280;67762;52.476;6.046;2023-03-20T13:39:19;101710.06;;;9.01;80.92
43820;BME280;67762;52.476;6.046;2023-03-20T13:41:48;101710.22;;;8.99;80.69
43820;BME280;67762;52.476;6.046;2023-03-20T13:44:17;101713.41;;;8.93;81.45
43820;BME280;67762;52.476;6.046;2023-03-20T13:47:01;101711.59;;;8.94;81.28
43820;BME280;67762;52.476;6.046;2023-03-20T13:52:46;101697.13;;;8.87;81.95
43820;BME280;67762;52.476;6.046;2023-03-20T13:55:23;101702.00;;;8.81;82.32
43820;BME280;67762;52.476;6.046;2023-03-20T14:01:15;101692.19;;;8.82;82.71
43820;BME280;67762;52.476;6.046;2023-03-20T14:03:44;101688.69;;;8.81;83.27
43820;BME280;67762;52.476;6.046;2023-03-20T14:06:43;101689.22;;;8.75;83.47
43820;BME280;67762;52.476;6.046;2023-03-20T14:09:36;101688.09;;;8.78;83.62
43820;BME280;67762;52.476;6.046;2023-03-20T14:12:10;101693.41;;;8.78;83.54
43820;BME280;67762;52.476;6.046;2023-03-20T14:17:24;101689.78;;;8.79;83.54
43820;BME280;67762;52.476;6.046;2023-03-20T14:19:51;101683.63;;;8.78;83.80
43820;BME280;67762;52.476;6.046;2023-03-20T14:22:25;101693.41;;;8.78;84.63
43820;BME280;67762;52.476;6.046;2023-03-20T14:25:04;101690.66;;;8.79;84.33
43820;BME280;67762;52.476;6.046;2023-03-20T14:27:34;101688.09;;;8.78;84.78
43820;BME280;67762;52.476;6.046;2023-03-20T14:33:21;101692.13;;;8.72;84.93
43820;BME280;67762;52.476;6.046;2023-03-20T14:35:51;101691.28;;;8.72;84.83
43820;BME280;67762;52.476;6.046;2023-03-20T14:38:45;101691.28;;;8.72;84.88
43820;BME280;67762;52.476;6.046;2023-03-20T14:41:32;101684.16;;;8.72;84.63
43820;BME280;67762;52.476;6.046;2023-03-20T14:52:09;101685.44;;;8.78;85.50
43820;BME280;67762;52.476;6.046;2023-03-20T14:54:39;101677.59;;;8.76;85.51
43820;BME280;67762;52.476;6.046;2023-03-20T14:57:17;101681.47;;;8.72;85.35
43820;BME280;67762;52.476;6.046;2023-03-20T14:59:48;101685.97;;;8.72;85.92
43820;BME280;67762;52.476;6.046;2023-03-20T15:02:25;101685.00;;;8.73;86.06
43820;BME280;67762;52.476;6.046;2023-03-20T15:04:51;101690.47;;;8.71;86.10
43820;BME280;67762;52.476;6.046;2023-03-20T15:09:48;101679.81;;;8.71;86.20
43820;BME280;67762;52.476;6.046;2023-03-20T15:12:20;101692.00;;;8.74;86.26
43820;BME280;67762;52.476;6.046;2023-03-20T15:14:58;101683.28;;;8.72;86.03
43820;BME280;67762;52.476;6.046;2023-03-20T15:17:38;101676.16;;;8.72;86.63
43820;BME280;67762;52.476;6.046;2023-03-20T15:20:34;101681.38;;;8.74;86.74
43820;BME280;67762;52.476;6.046;2023-03-20T15:23:01;101684.03;;;8.74;86.24